Time;durP1;ratioP1;P1;durP2;ratioP2;P2;SDS_P1;SDS_P2;PMS_P1;PMS_P2;Temp;Humidity;BMP_temperature;BMP_pressure;BME280_temperature;BME280_humidity;BME280_pressure;Samples;Min_cycle;Max_cycle;Signal;HPM_P1;HPM_P2
2022/02/27 00:01:52;;;;;;;4.63;3.87;;;4.30;99.90;;;;;;6032820;23;20492;-72
2022/02/27 00:04:41;;;;;;;5.10;3.40;;;4.20;99.90;;;;;;6031802;23;20539;-72
2022/02/27 00:07:29;;;;;;;4.40;4.00;;;4.20;99.90;;;;;;6025441;23;20420;-72
2022/02/27 00:10:20;;;;;;;4.37;3.97;;;4.10;99.90;;;;;;6033884;23;21007;-72
2022/02/27 00:13:08;;;;;;;4.40;4.00;;;4.10;99.90;;;;;;6034691;23;20472;-72
2022/02/27 00:15:56;;;;;;;4.80;3.80;;;4.10;99.90;;;;;;6034231;23;20499;-72
2022/02/27 00:18:46;;;;;;;4.23;3.50;;;4.10;99.90;;;;;;6038769;23;20780;-72
2022/02/27 00:21:34;;;;;;;3.87;3.53;;;4.00;99.90;;;;;;6036704;23;20448;-72
2022/02/27 00:24:22;;;;;;;4.83;3.97;;;4.00;99.90;;;;;;6028745;23;20921;-73
2022/02/27 00:27:11;;;;;;;4.67;4.20;;;4.00;99.90;;;;;;6037641;23;20440;-73
2022/02/27 00:29:59;;;;;;;4.60;3.83;;;4.00;99.90;;;;;;6034025;23;20441;-73
2022/02/27 00:32:47;;;;;;;3.90;3.53;;;3.90;99.90;;;;;;6032030;23;20846;-72
2022/02/27 00:35:40;;;;;;;4.47;4.07;;;3.90;99.90;;;;;;6033390;23;20425;-72
2022/02/27 00:38:28;;;;;;;4.90;4.30;;;3.90;99.90;;;;;;6035185;23;20440;-72
2022/02/27 00:41:16;;;;;;;4.40;4.00;;;3.80;99.90;;;;;;6032276;23;20811;-72
2022/02/27 00:44:05;;;;;;;4.30;3.90;;;3.80;99.90;;;;;;6020414;23;20584;-72
2022/02/27 00:46:53;;;;;;;6.17;3.77;;;3.80;99.90;;;;;;6031549;23;20592;-72
2022/02/27 00:49:42;;;;;;;4.93;3.40;;;3.70;99.90;;;;;;6033657;23;20436;-72
2022/02/27 00:52:32;;;;;;;4.83;3.50;;;3.60;99.90;;;;;;6033292;23;20485;-72
2022/02/27 00:55:20;;;;;;;4.83;3.70;;;3.50;99.90;;;;;;6026698;23;20535;-72
2022/02/27 00:58:08;;;;;;;4.50;4.10;;;3.50;99.90;;;;;;6033237;23;20484;-72
2022/02/27 01:00:57;;;;;;;5.23;4.10;;;3.40;99.90;;;;;;6029017;23;20515;-72
2022/02/27 01:03:47;;;;;;;3.73;3.43;;;3.30;99.90;;;;;;6030012;23;20445;-72
2022/02/27 01:06:35;;;;;;;4.80;3.67;;;3.30;99.90;;;;;;6032661;23;20507;-72
2022/02/27 01:09:25;;;;;;;5.57;4.40;;;3.20;99.90;;;;;;6038200;23;20432;-72
2022/02/27 01:12:13;;;;;;;4.63;4.10;;;3.20;99.90;;;;;;6033064;23;20449;-72
2022/02/27 01:15:01;;;;;;;3.77;3.43;;;3.10;99.90;;;;;;6028953;23;21043;-72
2022/02/27 01:17:50;;;;;;;5.10;4.20;;;3.10;99.90;;;;;;6031913;23;20441;-72
2022/02/27 01:20:38;;;;;;;4.60;4.20;;;3.10;99.90;;;;;;6024608;23;21236;-72
2022/02/27 01:23:27;;;;;;;6.03;3.83;;;3.10;99.90;;;;;;6030565;23;20533;-72
2022/02/27 01:26:16;;;;;;;4.17;3.83;;;3.10;99.90;;;;;;6033743;23;20500;-72
2022/02/27 01:29:04;;;;;;;6.60;3.97;;;3.10;99.90;;;;;;6029141;23;20552;-72
2022/02/27 01:31:54;;;;;;;5.43;4.40;;;3.10;99.90;;;;;;6029739;23;20416;-73
2022/02/27 01:34:42;;;;;;;5.03;4.53;;;3.10;99.90;;;;;;6029245;23;20807;-72
2022/02/27 01:37:30;;;;;;;5.60;4.27;;;3.10;99.90;;;;;;6020077;23;20416;-72
2022/02/27 01:40:18;;;;;;;4.70;4.30;;;3.00;99.90;;;;;;6031153;23;20952;-73
2022/02/27 01:43:08;;;;;;;7.43;4.50;;;3.00;99.90;;;;;;6029642;23;20476;-72
2022/02/27 01:45:58;;;;;;;5.00;4.40;;;3.00;99.90;;;;;;6033279;23;20757;-72
2022/02/27 01:48:46;;;;;;;5.00;4.17;;;3.00;99.90;;;;;;6035317;23;20926;-73
2022/02/27 01:51:34;;;;;;;6.60;4.43;;;3.00;99.90;;;;;;6034453;23;20507;-72
2022/02/27 01:54:23;;;;;;;6.30;4.47;;;2.90;99.90;;;;;;6035141;23;21007;-72
2022/02/27 01:57:12;;;;;;;4.83;4.33;;;3.00;99.90;;;;;;6034085;23;20503;-72
2022/02/27 02:00:06;;;;;;;4.20;3.90;;;2.90;99.90;;;;;;6030565;23;20496;-72
2022/02/27 02:02:54;;;;;;;7.53;4.37;;;2.90;99.90;;;;;;6029568;23;20449;-72
2022/02/27 02:05:42;;;;;;;5.90;4.20;;;2.90;99.90;;;;;;6035405;23;20939;-72
2022/02/27 02:08:30;;;;;;;5.80;4.20;;;2.90;99.90;;;;;;6027573;23;20421;-72
2022/02/27 02:11:19;;;;;;;4.67;4.13;;;2.90;99.90;;;;;;6035543;23;20528;-72
2022/02/27 02:14:07;;;;;;;5.33;4.30;;;2.80;99.90;;;;;;6033060;23;20543;-72
2022/02/27 02:16:57;;;;;;;5.27;3.90;;;2.80;99.90;;;;;;6039956;23;20412;-72
2022/02/27 02:19:45;;;;;;;5.30;4.27;;;2.80;99.90;;;;;;6034333;23;20801;-72
2022/02/27 02:22:35;;;;;;;5.43;3.83;;;2.80;99.90;;;;;;6031814;23;20413;-72
2022/02/27 02:25:23;;;;;;;4.87;4.37;;;2.80;99.90;;;;;;6026965;23;20780;-72
2022/02/27 02:28:11;;;;;;;4.73;4.07;;;2.70;99.90;;;;;;6032137;23;20536;-72
2022/02/27 02:30:59;;;;;;;4.87;4.43;;;2.70;99.90;;;;;;6034485;23;20437;-72
2022/02/27 02:33:48;;;;;;;6.20;4.30;;;2.70;99.90;;;;;;6033779;23;20909;-72
2022/02/27 02:36:36;;;;;;;6.10;4.30;;;2.70;99.90;;;;;;6030182;23;20424;-72
2022/02/27 02:39:28;;;;;;;4.53;4.10;;;2.70;99.90;;;;;;6032170;23;20460;-72
2022/02/27 02:42:16;;;;;;;4.80;4.40;;;2.70;99.90;;;;;;6030805;23;20416;-72
2022/02/27 02:45:05;;;;;;;7.30;4.43;;;2.60;99.90;;;;;;6025728;23;20471;-72
2022/02/27 02:47:55;;;;;;;5.47;4.30;;;2.50;99.90;;;;;;6031720;23;20440;-72
2022/02/27 02:50:44;;;;;;;5.20;4.00;;;2.60;99.90;;;;;;6035081;23;20783;-72
2022/02/27 02:53:35;;;;;;;7.23;5.17;;;2.60;99.90;;;;;;6032003;23;20497;-72
2022/02/27 02:56:25;;;;;;;5.13;4.20;;;2.60;99.90;;;;;;6032312;23;20911;-72
2022/02/27 02:59:13;;;;;;;5.07;4.53;;;2.60;99.90;;;;;;6030450;23;20821;-72
2022/02/27 03:02:01;;;;;;;4.80;4.10;;;2.50;99.90;;;;;;6026643;23;20668;-72
2022/02/27 03:04:50;;;;;;;4.40;4.00;;;2.60;99.90;;;;;;6032877;23;20509;-72
2022/02/27 03:07:40;;;;;;;4.03;3.73;;;2.50;99.90;;;;;;6030333;23;20827;-72
2022/02/27 03:10:28;;;;;;;6.03;4.03;;;2.60;99.90;;;;;;6030608;23;20586;-72
2022/02/27 03:13:18;;;;;;;5.10;4.00;;;2.60;99.90;;;;;;6038991;23;20445;-72
2022/02/27 03:16:07;;;;;;;5.97;4.63;;;2.50;99.90;;;;;;6032977;23;20819;-72
2022/02/27 03:18:55;;;;;;;7.10;4.30;;;2.50;99.90;;;;;;6033541;23;20531;-72
2022/02/27 03:21:43;;;;;;;3.97;3.67;;;2.40;99.90;;;;;;6021545;23;20524;-71
2022/02/27 03:24:31;;;;;;;6.40;4.17;;;2.40;99.90;;;;;;6023511;23;20999;-72
2022/02/27 03:27:19;;;;;;;5.70;4.10;;;2.40;99.90;;;;;;6029871;23;20503;-71
2022/02/27 03:30:09;;;;;;;4.60;4.03;;;2.40;99.90;;;;;;6032492;23;20453;-72
2022/02/27 03:32:58;;;;;;;4.90;4.00;;;2.30;99.90;;;;;;6039095;23;20441;-72
2022/02/27 03:35:46;;;;;;;4.73;4.20;;;2.30;99.90;;;;;;6043268;23;20471;-72
2022/02/27 03:38:35;;;;;;;5.07;4.23;;;2.20;99.90;;;;;;6032654;23;20762;-72
2022/02/27 03:41:23;;;;;;;4.40;4.00;;;2.20;99.90;;;;;;6039080;23;20496;-71
2022/02/27 03:44:11;;;;;;;5.30;4.20;;;2.30;99.90;;;;;;6032893;23;20484;-72
2022/02/27 03:47:01;;;;;;;6.93;4.47;;;2.30;99.90;;;;;;6026059;23;20420;-72
2022/02/27 03:49:49;;;;;;;4.57;4.07;;;2.30;99.90;;;;;;6032903;23;20441;-72
2022/02/27 03:52:38;;;;;;;5.87;4.13;;;2.20;99.90;;;;;;6039778;23;20815;-71
2022/02/27 03:55:26;;;;;;;4.60;3.80;;;2.20;99.90;;;;;;6033363;23;20882;-71
2022/02/27 03:58:14;;;;;;;4.40;3.97;;;2.20;99.90;;;;;;6031968;23;20431;-72
2022/02/27 04:01:02;;;;;;;5.00;4.17;;;2.20;99.90;;;;;;6029263;23;20473;-72
2022/02/27 04:03:51;;;;;;;4.60;3.67;;;2.20;99.90;;;;;;6038983;23;20943;-73
2022/02/27 04:06:40;;;;;;;4.60;3.80;;;2.20;99.90;;;;;;6033589;23;20501;-72
2022/02/27 04:09:28;;;;;;;7.77;4.37;;;2.20;99.90;;;;;;6024546;23;20547;-72
2022/02/27 04:12:16;;;;;;;5.70;3.90;;;2.30;99.90;;;;;;6033528;23;20564;-72
2022/02/27 04:15:05;;;;;;;5.50;4.20;;;2.20;99.90;;;;;;6029761;23;20495;-72
2022/02/27 04:17:53;;;;;;;4.97;4.57;;;2.10;99.90;;;;;;6040708;23;20459;-72
2022/02/27 04:20:45;;;;;;;4.43;4.03;;;2.10;99.90;;;;;;6030156;23;20469;-71
2022/02/27 04:23:33;;;;;;;5.00;3.87;;;2.10;99.90;;;;;;6033199;23;20555;-72
2022/02/27 04:26:21;;;;;;;5.07;3.87;;;2.10;99.90;;;;;;6033557;23;20935;-72
2022/02/27 04:29:10;;;;;;;5.67;3.90;;;2.10;99.90;;;;;;6029995;23;20561;-72
2022/02/27 04:31:58;;;;;;;4.70;4.20;;;2.10;99.90;;;;;;6033807;23;20441;-72
2022/02/27 04:34:49;;;;;;;6.70;4.10;;;2.00;99.90;;;;;;6032060;23;20447;-73
2022/02/27 04:37:38;;;;;;;4.67;4.27;;;2.00;99.90;;;;;;6031863;23;20807;-72
2022/02/27 04:40:26;;;;;;;4.20;3.80;;;2.00;99.90;;;;;;6042020;23;20444;-72
2022/02/27 04:43:15;;;;;;;5.33;4.30;;;2.00;99.90;;;;;;6039579;23;20947;-72
2022/02/27 04:46:03;;;;;;;4.00;3.60;;;2.00;99.90;;;;;;6032511;23;20573;-73
2022/02/27 04:48:52;;;;;;;5.07;4.07;;;2.00;99.90;;;;;;6032916;23;20432;-72
2022/02/27 04:51:41;;;;;;;4.93;4.40;;;1.90;99.90;;;;;;6034188;23;20496;-73
2022/02/27 04:54:31;;;;;;;5.00;4.50;;;1.90;99.90;;;;;;6029030;23;20548;-72
2022/02/27 04:57:19;;;;;;;4.30;3.90;;;1.90;99.90;;;;;;6032993;23;20457;-72
2022/02/27 05:00:08;;;;;;;3.70;3.40;;;1.80;99.90;;;;;;6038475;23;20568;-73
2022/02/27 05:02:57;;;;;;;6.50;4.03;;;1.70;99.90;;;;;;6032209;23;20539;-72
2022/02/27 05:05:45;;;;;;;5.57;5.07;;;1.60;99.90;;;;;;6031661;23;20541;-73
2022/02/27 05:08:33;;;;;;;6.27;4.33;;;1.70;99.90;;;;;;6031999;23;20512;-72
2022/02/27 05:11:23;;;;;;;4.40;4.00;;;1.80;99.90;;;;;;6032363;23;20511;-72
2022/02/27 05:14:11;;;;;;;4.33;3.93;;;1.80;99.90;;;;;;6034435;23;20532;-72
2022/02/27 05:17:00;;;;;;;5.57;3.97;;;1.80;99.90;;;;;;6015575;23;20423;-72
2022/02/27 05:19:49;;;;;;;4.20;3.80;;;1.80;99.90;;;;;;6028709;23;20492;-72
2022/02/27 05:22:42;;;;;;;6.00;4.00;;;1.80;99.90;;;;;;6042990;23;20448;-72
2022/02/27 05:25:30;;;;;;;4.30;3.90;;;1.80;99.90;;;;;;6035349;23;20588;-73
2022/02/27 05:28:19;;;;;;;4.10;3.70;;;1.70;99.90;;;;;;6031729;23;20791;-73
2022/02/27 05:31:08;;;;;;;6.50;4.23;;;1.70;99.90;;;;;;6034159;23;20504;-73
2022/02/27 05:33:56;;;;;;;8.93;4.90;;;1.60;99.90;;;;;;6035920;23;20448;-73
2022/02/27 05:36:44;;;;;;;5.90;4.37;;;1.60;99.90;;;;;;6027795;23;20472;-73
2022/02/27 05:39:33;;;;;;;4.17;3.77;;;1.50;99.90;;;;;;6034922;23;20555;-72
2022/02/27 05:42:21;;;;;;;4.27;3.87;;;1.60;99.90;;;;;;6033581;23;20461;-72
2022/02/27 05:45:12;;;;;;;5.73;4.30;;;1.60;99.90;;;;;;6031640;23;20555;-73
2022/02/27 05:48:00;;;;;;;6.47;4.27;;;1.50;99.90;;;;;;6033258;23;20416;-73
2022/02/27 05:50:53;;;;;;;4.77;3.77;;;1.60;99.90;;;;;;6034427;23;20432;-73
2022/02/27 05:53:42;;;;;;;4.20;3.73;;;1.60;99.90;;;;;;6030991;23;20443;-73
2022/02/27 05:56:30;;;;;;;4.57;4.10;;;1.50;99.90;;;;;;6041373;23;21002;-72
2022/02/27 05:59:20;;;;;;;4.80;3.53;;;1.40;99.90;;;;;;6032670;23;20531;-72
2022/02/27 06:02:09;;;;;;;3.87;3.53;;;1.40;99.90;;;;;;6033436;23;20419;-73
2022/02/27 06:04:58;;;;;;;6.47;3.90;;;1.40;99.90;;;;;;6030693;23;20798;-72
2022/02/27 06:07:46;;;;;;;4.40;3.90;;;1.40;99.90;;;;;;6035260;23;20448;-72
2022/02/27 06:10:34;;;;;;;4.37;3.97;;;1.40;99.90;;;;;;6027912;23;20547;-73
2022/02/27 06:13:25;;;;;;;5.73;5.23;;;1.40;99.90;;;;;;6037281;23;20444;-74
2022/02/27 06:16:13;;;;;;;5.20;4.70;;;1.40;99.90;;;;;;6031092;23;20413;-72
2022/02/27 06:19:03;;;;;;;5.60;4.10;;;1.50;99.90;;;;;;6033240;23;20447;-72
2022/02/27 06:21:51;;;;;;;7.93;3.30;;;1.40;99.90;;;;;;6031595;23;20836;-72
2022/02/27 06:24:39;;;;;;;4.83;4.33;;;1.50;99.90;;;;;;6032767;23;20516;-72
2022/02/27 06:27:28;;;;;;;5.30;4.80;;;1.50;99.90;;;;;;6032990;23;20425;-72
2022/02/27 06:30:18;;;;;;;8.37;4.87;;;1.40;99.90;;;;;;6026383;23;20532;-73
2022/02/27 06:33:06;;;;;;;5.60;3.80;;;1.40;99.90;;;;;;6031698;23;20460;-72
2022/02/27 06:35:55;;;;;;;4.40;4.00;;;1.40;99.90;;;;;;6035675;23;20512;-73
2022/02/27 06:38:46;;;;;;;4.93;3.80;;;1.40;99.90;;;;;;6034089;23;20432;-72
2022/02/27 06:41:34;;;;;;;4.30;3.90;;;1.40;99.90;;;;;;6036567;23;20508;-72
2022/02/27 06:44:22;;;;;;;4.53;4.13;;;1.30;99.90;;;;;;6032441;23;20507;-72
2022/02/27 06:47:10;;;;;;;5.27;4.37;;;1.40;99.90;;;;;;6035214;23;20465;-72
2022/02/27 06:49:59;;;;;;;4.67;3.90;;;1.40;99.90;;;;;;6035733;23;20476;-72
2022/02/27 06:52:48;;;;;;;9.80;4.57;;;1.40;99.90;;;;;;6033695;23;20823;-72
2022/02/27 06:55:37;;;;;;;5.23;4.40;;;1.40;99.90;;;;;;6029829;23;20454;-72
2022/02/27 06:58:26;;;;;;;4.40;3.90;;;1.50;99.90;;;;;;6036102;23;20435;-71
2022/02/27 07:01:17;;;;;;;5.00;4.50;;;1.40;99.90;;;;;;6032451;23;20424;-70
2022/02/27 07:04:06;;;;;;;4.40;4.00;;;1.30;99.90;;;;;;6024945;23;20807;-71
2022/02/27 07:06:54;;;;;;;8.27;5.03;;;1.30;99.90;;;;;;6027911;23;20547;-71
2022/02/27 07:09:44;;;;;;;8.03;4.13;;;1.20;99.90;;;;;;6029986;23;20834;-71
2022/02/27 07:12:37;;;;;;;6.90;4.60;;;1.20;99.90;;;;;;6030271;23;20428;-74
2022/02/27 07:15:25;;;;;;;4.83;4.33;;;1.30;99.90;;;;;;6042856;23;20451;-71
2022/02/27 07:18:13;;;;;;;6.07;4.30;;;1.30;99.90;;;;;;6034569;23;20759;-72
2022/02/27 07:21:01;;;;;;;5.53;3.80;;;1.40;99.90;;;;;;6022529;23;20832;-71
2022/02/27 07:23:50;;;;;;;7.07;5.20;;;1.30;99.90;;;;;;6032711;23;20515;-71
2022/02/27 07:26:39;;;;;;;10.67;4.97;;;1.30;99.90;;;;;;6038493;23;20963;-71
2022/02/27 07:29:28;;;;;;;6.00;4.37;;;1.40;99.90;;;;;;6039777;23;20547;-72
2022/02/27 07:32:16;;;;;;;5.90;4.40;;;1.30;99.90;;;;;;6031254;23;20520;-71
2022/02/27 07:35:05;;;;;;;5.90;4.63;;;1.30;99.90;;;;;;6029573;23;20496;-72
2022/02/27 07:37:53;;;;;;;8.60;4.50;;;1.40;99.90;;;;;;6031409;23;20444;-71
2022/02/27 07:40:42;;;;;;;6.40;4.47;;;1.40;99.90;;;;;;6027223;23;20771;-72
2022/02/27 07:43:32;;;;;;;5.67;4.10;;;1.50;99.90;;;;;;6019353;23;20530;-72
2022/02/27 07:46:20;;;;;;;5.60;4.20;;;1.50;99.90;;;;;;6010745;23;20536;-70
2022/02/27 07:49:08;;;;;;;6.20;5.20;;;1.60;99.90;;;;;;5999635;23;21213;-71
2022/02/27 07:51:56;;;;;;;8.33;4.60;;;1.60;99.90;;;;;;6012062;23;20503;-72
2022/02/27 07:54:46;;;;;;;5.30;4.63;;;1.60;99.90;;;;;;6029091;23;20801;-72
2022/02/27 07:57:35;;;;;;;6.23;5.13;;;1.60;99.90;;;;;;6033382;23;21184;-72
2022/02/27 08:00:24;;;;;;;6.87;5.00;;;1.70;99.90;;;;;;6027892;23;20489;-72
2022/02/27 08:03:12;;;;;;;6.83;5.17;;;1.70;99.90;;;;;;6035736;23;20535;-72
2022/02/27 08:06:01;;;;;;;6.33;5.00;;;1.70;99.90;;;;;;6033321;23;20539;-71
2022/02/27 08:08:53;;;;;;;8.37;5.43;;;1.70;99.90;;;;;;6033612;23;20437;-71
2022/02/27 08:11:41;;;;;;;6.10;5.27;;;1.80;99.90;;;;;;6022627;23;20420;-71
2022/02/27 08:14:30;;;;;;;7.17;5.70;;;1.90;99.90;;;;;;6032756;23;20457;-72
2022/02/27 08:17:20;;;;;;;7.80;5.60;;;1.90;99.90;;;;;;6028989;23;20417;-72
2022/02/27 08:20:10;;;;;;;6.97;5.40;;;2.00;99.90;;;;;;6030667;23;20440;-71
2022/02/27 08:22:58;;;;;;;6.47;5.00;;;2.00;99.90;;;;;;6029604;23;20569;-72
2022/02/27 08:25:46;;;;;;;7.20;5.10;;;2.00;99.90;;;;;;6031953;23;20413;-72
2022/02/27 08:28:34;;;;;;;6.17;5.03;;;2.10;99.90;;;;;;6030618;23;20499;-72
2022/02/27 08:31:22;;;;;;;5.60;5.10;;;2.10;99.90;;;;;;6027473;23;20418;-70
2022/02/27 08:34:12;;;;;;;6.40;5.73;;;2.20;99.90;;;;;;6021486;23;20451;-70
2022/02/27 08:37:00;;;;;;;9.03;6.00;;;2.30;99.90;;;;;;6034765;23;20484;-71
2022/02/27 08:39:48;;;;;;;7.77;5.33;;;2.30;99.90;;;;;;6031315;23;20979;-70
2022/02/27 08:42:37;;;;;;;10.13;6.37;;;2.40;99.90;;;;;;6026235;23;20417;-71
2022/02/27 08:45:25;;;;;;;7.47;6.27;;;2.40;99.90;;;;;;6031792;23;20413;-71
2022/02/27 08:48:13;;;;;;;6.10;5.43;;;2.50;99.90;;;;;;6029254;23;20441;-71
2022/02/27 08:51:03;;;;;;;7.50;6.03;;;2.50;99.90;;;;;;6029812;23;20426;-71
2022/02/27 08:53:51;;;;;;;8.40;5.50;;;2.60;99.90;;;;;;6031098;23;20463;-70
2022/02/27 08:56:39;;;;;;;7.20;6.13;;;2.70;99.90;;;;;;6028679;23;20556;-76
2022/02/27 08:59:27;;;;;;;7.47;6.03;;;2.80;99.90;;;;;;6013275;23;20436;-72
2022/02/27 09:02:15;;;;;;;7.20;5.57;;;2.90;99.90;;;;;;6015682;23;20476;-71
2022/02/27 09:05:07;;;;;;;6.03;5.50;;;3.00;99.90;;;;;;6022192;23;20471;-72
2022/02/27 09:07:57;;;;;;;10.87;6.10;;;3.00;99.90;;;;;;6026345;23;20543;-70
2022/02/27 09:10:45;;;;;;;9.33;5.63;;;3.10;99.90;;;;;;6024263;23;20523;-71
2022/02/27 09:13:33;;;;;;;6.67;6.07;;;3.20;99.90;;;;;;5996402;23;20489;-70
2022/02/27 09:16:21;;;;;;;9.93;5.87;;;3.30;99.90;;;;;;6024492;23;20818;-71
2022/02/27 09:19:09;;;;;;;6.63;5.97;;;3.30;99.90;;;;;;6024678;23;20437;-71
2022/02/27 09:21:58;;;;;;;7.53;6.20;;;3.40;99.90;;;;;;6027385;23;20560;-70
2022/02/27 09:24:47;;;;;;;7.30;6.30;;;3.50;99.90;;;;;;6026111;23;20476;-71
2022/02/27 09:27:35;;;;;;;9.23;6.17;;;3.60;99.90;;;;;;6035790;23;20531;-71
2022/02/27 09:30:24;;;;;;;8.43;6.30;;;3.70;99.90;;;;;;6025351;23;20473;-71
2022/02/27 09:33:13;;;;;;;8.67;6.70;;;3.80;99.90;;;;;;6035810;23;20456;-71
2022/02/27 09:36:01;;;;;;;6.30;5.70;;;3.90;99.90;;;;;;6027772;23;21046;-71
2022/02/27 09:38:49;;;;;;;11.03;6.30;;;4.00;99.90;;;;;;6028757;23;20527;-71
2022/02/27 09:41:38;;;;;;;9.00;5.87;;;4.10;99.90;;;;;;6028362;23;20448;-73
2022/02/27 09:44:30;;;;;;;6.63;5.70;;;4.20;99.90;;;;;;6026330;23;21103;-70
2022/02/27 09:47:22;;;;;;;8.43;5.60;;;4.30;99.90;;;;;;6038580;23;20454;-71
2022/02/27 09:50:10;;;;;;;6.63;5.93;;;4.40;99.90;;;;;;6019754;23;20440;-71
2022/02/27 09:52:59;;;;;;;7.77;6.10;;;4.50;99.90;;;;;;6006239;23;20504;-71
2022/02/27 09:55:47;;;;;;;6.40;5.30;;;4.70;99.90;;;;;;6031831;23;20882;-71
2022/02/27 09:58:37;;;;;;;9.50;5.83;;;4.70;99.90;;;;;;6027930;23;20500;-72
2022/02/27 10:01:25;;;;;;;9.30;5.50;;;4.70;99.90;;;;;;6030019;23;20848;-71
2022/02/27 10:04:20;;;;;;;7.97;5.43;;;4.80;99.90;;;;;;6032676;23;20563;-71
2022/02/27 10:07:10;;;;;;;7.47;6.20;;;4.90;99.90;;;;;;6030248;23;20444;-71
2022/02/27 10:10:06;;;;;;;11.00;5.67;;;5.00;99.90;;;;;;6038285;23;20515;-72
2022/02/27 10:12:55;;;;;;;7.23;5.70;;;5.10;99.90;;;;;;6037321;23;20462;-71
2022/02/27 10:15:44;;;;;;;5.97;4.90;;;5.20;99.90;;;;;;6029768;23;20460;-71
2022/02/27 10:18:40;;;;;;;6.40;5.33;;;5.20;99.90;;;;;;6032347;23;20416;-72
2022/02/27 10:21:32;;;;;;;8.40;5.70;;;5.20;99.90;;;;;;6025933;23;20420;-70
2022/02/27 10:24:38;;;;;;;7.63;5.10;;;5.30;99.90;;;;;;6007121;23;20542;-70
2022/02/27 10:27:40;;;;;;;9.30;5.80;;;5.40;99.90;;;;;;6039238;23;20838;-72
2022/02/27 10:30:30;;;;;;;10.57;6.17;;;5.50;99.90;;;;;;6041089;23;20436;-71
2022/02/27 10:33:23;;;;;;;7.10;5.93;;;5.60;99.90;;;;;;6029084;23;20463;-71
2022/02/27 10:36:14;;;;;;;8.13;5.90;;;5.70;99.90;;;;;;6024346;23;20416;-71
2022/02/27 10:39:04;;;;;;;9.27;5.90;;;5.80;99.90;;;;;;6039636;23;20924;-71
2022/02/27 10:41:52;;;;;;;8.93;6.57;;;5.90;99.90;;;;;;6037505;23;20421;-71
2022/02/27 10:44:42;;;;;;;7.60;5.83;;;6.00;99.90;;;;;;6022749;23;20799;-71
2022/02/27 10:47:32;;;;;;;7.53;6.40;;;6.10;99.90;;;;;;6024967;23;20828;-71
2022/02/27 10:50:28;;;;;;;9.60;6.10;;;6.20;99.90;;;;;;6030171;23;20845;-71
2022/02/27 10:53:16;;;;;;;6.40;5.10;;;6.30;99.90;;;;;;6031290;23;20480;-71
2022/02/27 10:56:06;;;;;;;7.07;5.63;;;6.40;99.90;;;;;;6028963;23;20497;-71
2022/02/27 10:58:54;;;;;;;7.67;6.23;;;6.60;99.90;;;;;;6031047;23;21002;-70
2022/02/27 11:01:42;;;;;;;7.77;5.57;;;6.70;99.90;;;;;;6030279;23;20524;-70
2022/02/27 11:04:35;;;;;;;6.50;4.83;;;6.80;99.90;;;;;;6015898;23;20448;-70
2022/02/27 11:07:25;;;;;;;6.77;4.67;;;6.90;99.90;;;;;;6026741;23;20527;-70
2022/02/27 11:10:15;;;;;;;6.63;5.10;;;6.90;99.90;;;;;;6029238;23;20440;-70
2022/02/27 11:13:05;;;;;;;5.70;5.07;;;6.90;99.90;;;;;;6019554;23;20448;-71
2022/02/27 11:15:54;;;;;;;4.97;4.57;;;7.10;99.90;;;;;;6029003;23;20520;-70
2022/02/27 11:18:43;;;;;;;12.00;5.20;;;7.20;99.90;;;;;;6029201;23;20516;-70
2022/02/27 11:21:35;;;;;;;5.70;4.23;;;7.30;99.90;;;;;;6040789;23;20416;-70
2022/02/27 11:24:25;;;;;;;5.07;4.10;;;7.40;99.90;;;;;;6027296;23;20460;-70
2022/02/27 11:27:15;;;;;;;5.67;4.30;;;7.30;99.90;;;;;;6029390;23;20416;-69
2022/02/27 11:30:06;;;;;;;6.73;4.00;;;7.50;99.90;;;;;;6027985;23;20437;-69
2022/02/27 11:32:57;;;;;;;6.43;4.60;;;7.60;99.90;;;;;;6030070;23;20452;-70
2022/02/27 11:35:49;;;;;;;6.70;3.97;;;7.80;99.90;;;;;;6029006;23;20480;-72
2022/02/27 11:38:38;;;;;;;5.97;4.07;;;8.00;99.90;;;;;;6029705;23;20468;-69
2022/02/27 11:41:28;;;;;;;6.10;3.83;;;8.20;99.90;;;;;;6024152;23;20795;-69
2022/02/27 11:44:16;;;;;;;6.13;3.90;;;8.30;99.90;;;;;;6029585;23;20573;-69
2022/02/27 11:47:08;;;;;;;4.33;3.60;;;8.50;99.90;;;;;;6030022;23;20468;-71
2022/02/27 11:50:26;;;;;;;4.87;4.00;;;8.70;99.90;;;;;;6028755;23;20439;-69
2022/02/27 11:53:21;;;;;;;5.50;3.40;;;8.90;99.90;;;;;;6029828;23;20493;-70
2022/02/27 11:56:09;;;;;;;3.93;3.27;;;8.90;99.90;;;;;;6026019;23;20986;-70
2022/02/27 11:59:00;;;;;;;4.10;3.70;;;9.00;99.90;;;;;;6040253;23;20444;-69
2022/02/27 12:01:57;;;;;;;4.50;3.00;;;9.20;99.90;;;;;;6028272;23;20412;-69
2022/02/27 12:04:49;;;;;;;4.37;3.60;;;9.30;99.90;;;;;;6026248;23;20456;-69
2022/02/27 12:08:06;;;;;;;4.53;3.33;;;9.50;99.90;;;;;;6039205;23;20836;-68
2022/02/27 12:10:55;;;;;;;4.67;3.73;;;9.60;99.90;;;;;;5979434;23;20481;-70
2022/02/27 12:14:05;;;;;;;4.47;3.73;;;9.70;99.90;;;;;;6029226;23;20452;-69
2022/02/27 12:16:53;;;;;;;3.70;3.30;;;9.80;99.90;;;;;;6028476;23;21259;-69
2022/02/27 12:19:46;;;;;;;3.47;2.93;;;9.80;99.90;;;;;;6023895;23;20428;-68
2022/02/27 12:22:43;;;;;;;3.50;3.17;;;10.00;99.90;;;;;;6028549;23;20452;-68
2022/02/27 12:25:34;;;;;;;4.10;3.40;;;10.30;99.90;;;;;;6039530;23;20472;-68
2022/02/27 12:28:55;;;;;;;3.97;3.27;;;10.20;99.90;;;;;;6027813;23;20914;-67
2022/02/27 12:31:47;;;;;;;5.37;3.60;;;10.50;99.90;;;;;;6031388;23;20444;-71
2022/02/27 12:34:37;;;;;;;5.63;3.57;;;10.80;99.90;;;;;;6026090;23;20453;-70
2022/02/27 12:37:25;;;;;;;4.10;3.70;;;12.70;99.90;;;;;;6022182;23;20507;-71
2022/02/27 12:40:14;;;;;;;4.00;3.40;;;17.00;99.90;;;;;;6030853;23;20532;-70
2022/02/27 12:43:03;;;;;;;4.03;3.03;;;20.70;99.90;;;;;;6010867;23;20444;-72
2022/02/27 12:45:52;;;;;;;3.67;3.27;;;23.30;92.10;;;;;;6024966;23;20507;-74
2022/02/27 12:51:56;;;;;;;4.13;3.70;;;26.50;67.50;;;;;;6022441;23;20519;-73
2022/02/27 12:54:45;;;;;;;4.00;3.63;;;27.50;64.10;;;;;;6026514;23;21042;-73
2022/02/27 12:57:34;;;;;;;3.50;3.20;;;28.50;59.30;;;;;;6025527;23;20452;-72
2022/02/27 13:00:24;;;;;;;3.67;3.30;;;29.40;54.50;;;;;;6030521;23;20497;-73
2022/02/27 13:03:15;;;;;;;4.57;3.60;;;28.80;53.50;;;;;;6024823;23;20787;-73
2022/02/27 13:06:05;;;;;;;3.70;3.40;;;28.90;50.20;;;;;;6031918;23;20425;-73
2022/02/27 13:08:53;;;;;;;3.33;3.13;;;28.50;51.00;;;;;;6026986;23;20514;-74
2022/02/27 13:11:45;;;;;;;3.50;3.20;;;28.80;52.60;;;;;;6028148;23;20903;-71
2022/02/27 13:14:33;;;;;;;4.10;3.80;;;29.30;50.80;;;;;;6030040;23;20448;-71
2022/02/27 13:17:23;;;;;;;3.80;3.50;;;26.80;49.40;;;;;;6026019;23;20560;-71
2022/02/27 13:20:13;;;;;;;4.03;3.47;;;27.00;52.50;;;;;;6023222;23;21271;-71
2022/02/27 13:23:03;;;;;;;3.97;3.67;;;27.10;52.90;;;;;;6025735;23;20983;-70
2022/02/27 13:25:51;;;;;;;4.20;3.80;;;27.00;51.40;;;;;;6022664;23;20488;-73
2022/02/27 13:28:52;;;;;;;3.80;3.50;;;26.50;51.70;;;;;;6029474;23;20907;-73
2022/02/27 13:31:40;;;;;;;3.47;3.17;;;26.00;53.50;;;;;;6027273;23;20488;-72
2022/02/27 13:34:30;;;;;;;4.03;3.70;;;25.70;53.90;;;;;;6027873;23;20961;-74
2022/02/27 13:37:30;;;;;;;4.00;3.70;;;25.60;53.40;;;;;;6030703;23;20420;-71
2022/02/27 13:40:21;;;;;;;3.60;3.30;;;24.40;52.80;;;;;;6029253;23;20506;-71
2022/02/27 13:43:15;;;;;;;4.73;3.47;;;22.40;54.60;;;;;;6010958;23;21120;-72
2022/02/27 13:46:06;;;;;;;4.00;3.60;;;22.20;56.50;;;;;;6024943;23;21119;-71
2022/02/27 13:49:05;;;;;;;3.73;3.43;;;21.40;57.50;;;;;;6032991;23;20494;-72
2022/02/27 13:51:53;;;;;;;3.87;3.47;;;21.80;56.90;;;;;;6024298;23;20736;-71
2022/02/27 13:54:44;;;;;;;3.40;3.10;;;21.10;57.60;;;;;;6030067;23;20876;-72
2022/02/27 13:57:40;;;;;;;4.83;3.90;;;19.90;57.40;;;;;;6031672;23;21010;-72
2022/02/27 14:00:32;;;;;;;5.07;3.83;;;18.80;58.40;;;;;;6028742;23;20452;-73
2022/02/27 14:03:31;;;;;;;4.73;3.93;;;17.90;62.20;;;;;;6028753;23;20451;-72
2022/02/27 14:06:20;;;;;;;4.30;3.90;;;17.00;65.10;;;;;;6031229;23;20420;-71
2022/02/27 14:09:13;;;;;;;6.00;4.10;;;16.70;66.60;;;;;;6020446;23;20498;-71
2022/02/27 14:12:06;;;;;;;4.37;3.97;;;16.00;67.20;;;;;;6024517;23;20868;-70
2022/02/27 14:15:00;;;;;;;5.27;4.00;;;15.60;70.30;;;;;;6028728;23;20772;-71
2022/02/27 14:17:49;;;;;;;4.27;3.27;;;15.00;72.60;;;;;;6026257;23;20419;-71
2022/02/27 14:20:37;;;;;;;8.27;4.37;;;14.80;77.70;;;;;;6029983;23;20480;-72
2022/02/27 14:23:30;;;;;;;4.13;3.43;;;14.50;82.40;;;;;;6015745;23;20839;-71
2022/02/27 14:26:24;;;;;;;5.23;3.80;;;14.30;82.90;;;;;;6028997;23;20421;-71
2022/02/27 14:29:14;;;;;;;4.63;3.53;;;14.00;81.60;;;;;;6036069;23;20950;-70
2022/02/27 14:32:22;;;;;;;4.40;4.00;;;13.80;88.80;;;;;;6029067;23;20928;-70
2022/02/27 14:35:11;;;;;;;3.50;3.20;;;13.80;91.10;;;;;;6028401;23;20500;-70
2022/02/27 14:37:59;;;;;;;3.57;3.17;;;13.70;89.40;;;;;;6026659;23;20828;-70
2022/02/27 14:40:48;;;;;;;3.90;3.30;;;13.50;92.30;;;;;;6028781;23;20785;-70
2022/02/27 14:43:36;;;;;;;3.63;2.87;;;13.30;92.90;;;;;;6030173;23;20956;-70
2022/02/27 14:46:24;;;;;;;4.40;3.27;;;13.40;92.50;;;;;;6026388;23;20492;-70
2022/02/27 14:49:15;;;;;;;4.80;2.80;;;13.20;93.00;;;;;;6028046;23;20445;-71
2022/02/27 14:52:04;;;;;;;5.07;3.30;;;13.00;94.40;;;;;;5989356;23;1047591;-70
2022/02/27 14:54:53;;;;;;;4.27;3.73;;;12.70;93.60;;;;;;6001665;23;20312;-70
2022/02/27 14:57:42;;;;;;;5.03;3.37;;;12.50;95.50;;;;;;6002297;23;20479;-71